Time;durP1;ratioP1;P1;durP2;ratioP2;P2;SDS_P1;SDS_P2;PMS_P1;PMS_P2;Temp;Humidity;BMP_temperature;BMP_pressure;BME280_temperature;BME280_humidity;BME280_pressure;Samples;Min_cycle;Max_cycle;Signal;HPM_P1;HPM_P2
2023/03/12 00:02:07;;;;;;;13.85;4.95;;;4.60;99.90;;;;;;5031644;28;20052;-73
2023/03/12 00:04:34;;;;;;;14.40;5.25;;;4.60;99.90;;;;;;5031870;28;20026;-73
2023/03/12 00:07:01;;;;;;;15.30;6.22;;;4.60;99.90;;;;;;5032076;28;20033;-73
2023/03/12 00:09:26;;;;;;;12.82;5.97;;;4.60;99.90;;;;;;5031943;28;20029;-73
2023/03/12 00:11:52;;;;;;;15.82;5.70;;;4.60;99.90;;;;;;5031845;28;20075;-73
2023/03/12 00:14:18;;;;;;;13.57;6.07;;;4.60;99.90;;;;;;5031397;28;20090;-73
2023/03/12 00:16:43;;;;;;;14.23;7.22;;;4.60;99.90;;;;;;5018697;28;20094;-73
2023/03/12 00:19:11;;;;;;;16.33;5.43;;;4.60;99.90;;;;;;5031945;28;20033;-73
2023/03/12 00:21:37;;;;;;;11.88;5.55;;;4.60;99.90;;;;;;5024490;28;20033;-73
2023/03/12 00:24:03;;;;;;;16.58;6.50;;;4.60;99.90;;;;;;5031010;28;20053;-73
2023/03/12 00:26:28;;;;;;;13.43;6.35;;;4.60;99.90;;;;;;5013967;28;20040;-73
2023/03/12 00:28:54;;;;;;;14.93;6.15;;;4.60;99.90;;;;;;5032676;28;20029;-73
2023/03/12 00:31:23;;;;;;;13.15;5.80;;;4.50;99.90;;;;;;5035218;28;20033;-73
2023/03/12 00:33:49;;;;;;;15.80;5.82;;;4.50;99.90;;;;;;5027675;28;20046;-73
2023/03/12 00:36:16;;;;;;;17.92;6.38;;;4.50;99.90;;;;;;5015299;28;20095;-73
2023/03/12 00:38:41;;;;;;;13.23;5.30;;;4.50;99.90;;;;;;5015723;28;20030;-72
2023/03/12 00:41:07;;;;;;;17.00;5.25;;;4.50;99.90;;;;;;5034987;28;20128;-73
2023/03/12 00:43:33;;;;;;;14.15;5.75;;;4.50;99.90;;;;;;5034976;28;20033;-73
2023/03/12 00:45:58;;;;;;;14.32;5.70;;;4.60;99.90;;;;;;5035117;28;20021;-73
2023/03/12 00:48:24;;;;;;;19.48;6.38;;;4.60;99.90;;;;;;5035109;28;20041;-73
2023/03/12 00:50:49;;;;;;;12.98;5.78;;;4.60;99.90;;;;;;5034859;28;20028;-73
2023/03/12 00:53:15;;;;;;;13.60;5.35;;;4.60;99.90;;;;;;5034849;28;20424;-73
2023/03/12 00:55:41;;;;;;;10.65;5.15;;;4.70;99.90;;;;;;5034902;28;20049;-73
2023/03/12 00:58:06;;;;;;;16.77;5.75;;;4.70;99.90;;;;;;5034326;28;20381;-75
2023/03/12 01:00:32;;;;;;;11.88;5.55;;;4.70;99.90;;;;;;5017085;28;20080;-74
2023/03/12 01:02:58;;;;;;;17.75;7.18;;;4.80;99.90;;;;;;5034531;28;20105;-72
2023/03/12 01:05:24;;;;;;;12.65;5.72;;;4.80;99.90;;;;;;5033478;28;20029;-74
2023/03/12 01:07:49;;;;;;;14.48;5.00;;;4.80;99.90;;;;;;5033476;28;20079;-75
2023/03/12 01:10:18;;;;;;;13.98;6.43;;;4.90;99.90;;;;;;5031070;28;20100;-73
2023/03/12 01:12:44;;;;;;;16.08;5.38;;;4.90;99.90;;;;;;5032673;28;20026;-74
2023/03/12 01:15:13;;;;;;;13.07;5.15;;;4.90;99.90;;;;;;5026849;28;20383;-76
2023/03/12 01:17:39;;;;;;;11.57;5.32;;;4.90;99.90;;;;;;5032477;28;20056;-75
2023/03/12 01:20:05;;;;;;;12.55;5.32;;;4.90;99.90;;;;;;5032667;28;20045;-73
2023/03/12 01:22:31;;;;;;;13.13;4.60;;;5.00;99.90;;;;;;5032998;28;20454;-75
2023/03/12 01:24:56;;;;;;;15.27;5.22;;;4.90;99.90;;;;;;5033186;28;20033;-73
2023/03/12 01:27:22;;;;;;;16.88;5.28;;;5.00;99.90;;;;;;5032772;28;20056;-73
2023/03/12 01:29:48;;;;;;;11.57;5.10;;;5.00;99.90;;;;;;5029571;28;20060;-75
2023/03/12 01:32:15;;;;;;;10.30;4.57;;;5.00;99.90;;;;;;5032391;28;20025;-75
2023/03/12 01:34:42;;;;;;;11.50;4.40;;;5.00;99.90;;;;;;5032990;28;20049;-73
2023/03/12 01:37:07;;;;;;;14.18;4.60;;;5.00;99.90;;;;;;5034190;28;20025;-73
2023/03/12 01:39:33;;;;;;;12.77;5.07;;;5.00;99.90;;;;;;5033635;28;20112;-74
2023/03/12 01:41:59;;;;;;;12.93;5.35;;;5.10;99.90;;;;;;5033590;28;20029;-73
2023/03/12 01:44:25;;;;;;;11.40;5.28;;;5.00;99.90;;;;;;5014680;28;20036;-72
2023/03/12 01:46:50;;;;;;;11.68;4.70;;;5.10;99.90;;;;;;5033593;28;20042;-73
2023/03/12 01:49:33;;;;;;;9.43;5.15;;;5.10;99.90;;;;;;5033582;28;20036;-73
2023/03/12 01:52:05;;;;;;;10.05;4.63;;;5.10;99.90;;;;;;5033989;28;20029;-73
2023/03/12 01:54:51;;;;;;;14.38;4.57;;;5.20;99.90;;;;;;5033322;28;20493;-73
2023/03/12 01:57:22;;;;;;;9.70;4.65;;;5.20;99.90;;;;;;5033336;28;20065;-73
2023/03/12 01:59:55;;;;;;;11.73;4.50;;;5.20;99.90;;;;;;5033514;28;20033;-72
2023/03/12 02:02:28;;;;;;;10.68;4.10;;;5.20;99.90;;;;;;5033537;28;20021;-72
2023/03/12 02:05:12;;;;;;;10.68;5.38;;;5.20;99.90;;;;;;5032031;28;20583;-73
2023/03/12 02:07:38;;;;;;;12.77;4.82;;;5.20;99.90;;;;;;5033579;28;20022;-73
2023/03/12 02:10:04;;;;;;;7.70;4.10;;;5.10;99.90;;;;;;5027804;28;20543;-73
2023/03/12 02:12:30;;;;;;;12.48;4.60;;;5.10;99.90;;;;;;5014059;28;20129;-73
2023/03/12 02:14:56;;;;;;;10.00;4.05;;;5.10;99.90;;;;;;5022498;28;20128;-73
2023/03/12 02:17:22;;;;;;;10.07;4.10;;;5.20;99.90;;;;;;5033057;28;20101;-73
2023/03/12 02:20:16;;;;;;;12.20;4.63;;;5.10;99.90;;;;;;5033153;28;20052;-73
2023/03/12 02:22:56;;;;;;;12.05;5.40;;;5.20;99.90;;;;;;5015244;28;20433;-73
2023/03/12 02:25:34;;;;;;;12.35;4.70;;;5.20;99.90;;;;;;5033281;28;20049;-72
2023/03/12 02:28:03;;;;;;;11.32;4.10;;;5.20;99.90;;;;;;5033246;28;20435;-73
2023/03/12 02:30:30;;;;;;;12.32;4.75;;;5.20;99.90;;;;;;5032717;28;20073;-73
2023/03/12 02:33:01;;;;;;;10.70;4.65;;;5.20;99.90;;;;;;5032598;28;20104;-74
2023/03/12 02:35:27;;;;;;;8.57;4.13;;;5.20;99.90;;;;;;5033102;28;20033;-73
2023/03/12 02:37:55;;;;;;;14.13;4.80;;;5.30;99.90;;;;;;5032717;28;20109;-73
2023/03/12 02:40:36;;;;;;;9.68;3.95;;;5.30;99.90;;;;;;5030415;28;20056;-75
2023/03/12 02:43:04;;;;;;;11.07;4.50;;;5.30;99.90;;;;;;5032651;28;20030;-75
2023/03/12 02:45:30;;;;;;;9.93;4.28;;;5.30;99.90;;;;;;5030793;28;20036;-75
2023/03/12 02:47:56;;;;;;;7.72;4.20;;;5.30;99.90;;;;;;5032927;28;20133;-75
2023/03/12 02:50:22;;;;;;;9.27;4.25;;;5.30;99.90;;;;;;5014711;28;20064;-76
2023/03/12 02:52:47;;;;;;;9.30;4.35;;;5.20;99.90;;;;;;5031624;28;20022;-73
2023/03/12 02:55:13;;;;;;;12.35;4.38;;;5.20;99.90;;;;;;5031393;28;20043;-76
2023/03/12 02:57:38;;;;;;;7.75;3.63;;;5.20;99.90;;;;;;5032289;28;20025;-74
2023/03/12 03:00:13;;;;;;;10.75;3.92;;;5.20;99.90;;;;;;5032485;28;20029;-75
2023/03/12 03:02:40;;;;;;;9.27;3.85;;;5.20;99.90;;;;;;5032541;28;20022;-74
2023/03/12 03:05:07;;;;;;;12.02;4.60;;;5.10;99.90;;;;;;5032129;28;20049;-75
2023/03/12 03:07:33;;;;;;;11.27;4.68;;;5.20;99.90;;;;;;5030188;28;20034;-74
2023/03/12 03:10:03;;;;;;;11.07;4.70;;;5.10;99.90;;;;;;5032002;28;20094;-75
2023/03/12 03:12:35;;;;;;;11.32;4.93;;;5.20;99.90;;;;;;5031363;28;20490;-72
2023/03/12 03:15:02;;;;;;;12.02;4.57;;;5.20;99.90;;;;;;5031965;28;20140;-76
2023/03/12 03:17:28;;;;;;;11.88;6.22;;;5.10;99.90;;;;;;5032390;28;20033;-74
2023/03/12 03:19:54;;;;;;;10.63;4.30;;;5.10;99.90;;;;;;5031710;28;20037;-74
2023/03/12 03:22:21;;;;;;;10.35;4.18;;;5.10;99.90;;;;;;5032439;28;20100;-76
2023/03/12 03:24:46;;;;;;;9.20;4.30;;;5.10;99.90;;;;;;5026603;28;20060;-73
2023/03/12 03:27:12;;;;;;;12.10;4.30;;;5.20;99.90;;;;;;5030412;28;20029;-74
2023/03/12 03:29:38;;;;;;;11.80;4.15;;;5.20;99.90;;;;;;5031327;28;20065;-73
2023/03/12 03:32:04;;;;;;;9.98;4.13;;;5.20;99.90;;;;;;5032477;28;20359;-72
2023/03/12 03:34:30;;;;;;;6.55;3.70;;;5.10;99.90;;;;;;5031817;28;20497;-72
2023/03/12 03:36:56;;;;;;;14.73;4.07;;;5.10;99.90;;;;;;5032243;28;20039;-73
2023/03/12 03:39:22;;;;;;;11.88;4.20;;;5.10;99.90;;;;;;5032076;28;20083;-74
2023/03/12 03:41:47;;;;;;;9.68;3.70;;;5.10;99.90;;;;;;4995019;28;20431;-75
2023/03/12 03:44:13;;;;;;;8.32;3.85;;;5.10;99.90;;;;;;5012789;28;20053;-76
2023/03/12 03:46:39;;;;;;;11.65;4.00;;;5.10;99.90;;;;;;5031256;28;20033;-73
2023/03/12 03:49:05;;;;;;;9.32;4.50;;;5.10;99.90;;;;;;5031579;28;20117;-75
2023/03/12 03:51:31;;;;;;;13.10;4.53;;;5.10;99.90;;;;;;5031772;28;20034;-74
2023/03/12 03:54:01;;;;;;;5.95;2.95;;;5.00;99.90;;;;;;5031156;28;20091;-74
2023/03/12 03:56:28;;;;;;;7.75;2.80;;;5.10;99.90;;;;;;5030958;28;20025;-77
2023/03/12 03:58:53;;;;;;;8.40;3.63;;;5.00;99.90;;;;;;5031216;28;20030;-73
2023/03/12 04:01:19;;;;;;;10.52;3.63;;;4.90;99.90;;;;;;5030626;28;20486;-74
2023/03/12 04:03:45;;;;;;;9.60;3.83;;;4.90;99.90;;;;;;5032831;28;20034;-73
2023/03/12 04:06:11;;;;;;;9.98;3.97;;;4.90;99.90;;;;;;5035104;28;20381;-73
2023/03/12 04:08:36;;;;;;;10.85;4.10;;;4.80;99.90;;;;;;5035378;28;20033;-73
2023/03/12 04:11:25;;;;;;;15.45;3.80;;;4.80;99.90;;;;;;5016127;28;20108;-74
2023/03/12 04:13:50;;;;;;;9.18;3.83;;;4.70;99.90;;;;;;5034307;28;20041;-73
2023/03/12 04:16:17;;;;;;;6.43;2.78;;;4.60;99.90;;;;;;5033169;28;20036;-73
2023/03/12 04:18:44;;;;;;;7.28;3.22;;;4.50;99.90;;;;;;5033917;28;20044;-73
2023/03/12 04:21:12;;;;;;;9.55;3.80;;;4.50;99.90;;;;;;5034174;28;20068;-73
2023/03/12 04:23:38;;;;;;;8.85;3.50;;;4.40;99.90;;;;;;5033951;28;20420;-73
2023/03/12 04:26:05;;;;;;;14.07;4.68;;;4.30;99.90;;;;;;5033757;28;20029;-73
2023/03/12 04:28:31;;;;;;;9.25;3.92;;;4.30;99.90;;;;;;5034149;28;20607;-73
2023/03/12 04:30:59;;;;;;;10.20;4.13;;;4.30;99.90;;;;;;5035265;28;20128;-73
2023/03/12 04:33:30;;;;;;;9.48;4.03;;;4.30;99.90;;;;;;5035354;28;20040;-73
2023/03/12 04:35:56;;;;;;;13.40;4.38;;;4.30;99.90;;;;;;5035189;28;20037;-73
2023/03/12 04:38:24;;;;;;;18.48;7.70;;;4.30;99.90;;;;;;5035029;28;20473;-73
2023/03/12 04:41:11;;;;;;;11.85;4.45;;;4.30;99.90;;;;;;5034198;28;20076;-73
2023/03/12 04:43:36;;;;;;;11.20;3.60;;;4.30;99.90;;;;;;5035183;28;20484;-74
2023/03/12 04:46:03;;;;;;;9.35;3.60;;;4.30;99.90;;;;;;5034908;28;20163;-75
2023/03/12 04:48:29;;;;;;;12.68;4.40;;;4.30;99.90;;;;;;5034802;28;20021;-72
2023/03/12 04:50:54;;;;;;;9.82;4.05;;;4.40;99.90;;;;;;5034254;28;20052;-74
2023/03/12 04:53:20;;;;;;;11.32;4.40;;;4.40;99.90;;;;;;5034440;28;20029;-75
2023/03/12 04:55:46;;;;;;;12.93;4.80;;;4.40;99.90;;;;;;5033158;28;20043;-72
2023/03/12 04:58:12;;;;;;;14.55;5.47;;;4.40;99.90;;;;;;5034291;28;20025;-74
2023/03/12 05:00:39;;;;;;;8.02;3.90;;;4.50;99.90;;;;;;5033936;28;20033;-74
2023/03/12 05:03:04;;;;;;;11.55;4.15;;;4.40;99.90;;;;;;5034650;28;20355;-72
2023/03/12 05:05:30;;;;;;;15.38;4.80;;;4.50;99.90;;;;;;5032835;28;20035;-73
2023/03/12 05:07:55;;;;;;;13.85;4.13;;;4.50;99.90;;;;;;5034215;28;20029;-75
2023/03/12 05:10:21;;;;;;;6.85;3.15;;;4.50;99.90;;;;;;5034100;28;20025;-73
2023/03/12 05:12:46;;;;;;;13.32;5.15;;;4.50;99.90;;;;;;5034793;28;20033;-74
2023/03/12 05:15:12;;;;;;;11.10;3.10;;;4.50;99.90;;;;;;5033715;28;20030;-72
2023/03/12 05:17:38;;;;;;;15.20;3.63;;;4.50;99.90;;;;;;5034778;28;20413;-74
2023/03/12 05:20:05;;;;;;;7.00;3.35;;;4.50;99.90;;;;;;5034555;28;20095;-74
2023/03/12 05:22:30;;;;;;;8.85;4.05;;;4.50;99.90;;;;;;5034283;28;20079;-75
2023/03/12 05:24:56;;;;;;;8.65;3.88;;;4.50;99.90;;;;;;5016824;28;20033;-73
2023/03/12 05:27:24;;;;;;;10.00;5.00;;;4.40;99.90;;;;;;5034336;28;20041;-75
2023/03/12 05:29:50;;;;;;;13.55;5.07;;;4.40;99.90;;;;;;5034125;28;20041;-72
2023/03/12 05:32:16;;;;;;;12.48;4.72;;;4.40;99.90;;;;;;5033681;28;20037;-72
2023/03/12 05:34:42;;;;;;;9.45;4.40;;;4.30;99.90;;;;;;5034324;28;20048;-73
2023/03/12 05:37:07;;;;;;;12.55;4.43;;;4.30;99.90;;;;;;5033640;28;20489;-73
2023/03/12 05:39:33;;;;;;;9.88;4.25;;;4.30;99.90;;;;;;5034168;28;20417;-74
2023/03/12 05:41:59;;;;;;;11.73;4.25;;;4.30;99.90;;;;;;5033983;28;20029;-74
2023/03/12 05:44:25;;;;;;;13.20;5.57;;;4.30;99.90;;;;;;5016312;28;20381;-74
2023/03/12 05:46:52;;;;;;;13.85;5.20;;;4.30;99.90;;;;;;5033560;28;20079;-72
2023/03/12 05:49:19;;;;;;;12.05;5.22;;;4.20;99.90;;;;;;5034064;28;20075;-73
2023/03/12 05:51:46;;;;;;;9.77;4.30;;;4.20;99.90;;;;;;5033274;28;20068;-74
2023/03/12 05:54:12;;;;;;;14.40;4.70;;;4.20;99.90;;;;;;5033704;28;20053;-75
2023/03/12 05:56:38;;;;;;;12.40;4.95;;;4.20;99.90;;;;;;5033560;28;20036;-73
2023/03/12 05:59:04;;;;;;;9.82;5.18;;;4.10;99.90;;;;;;5033846;28;20397;-71
2023/03/12 06:01:31;;;;;;;14.73;6.65;;;4.10;99.90;;;;;;5033806;28;20032;-74
2023/03/12 06:03:57;;;;;;;17.23;6.68;;;4.10;99.90;;;;;;5033840;28;20026;-72
2023/03/12 06:06:23;;;;;;;16.30;6.65;;;4.10;99.90;;;;;;5033533;28;20179;-72
2023/03/12 06:08:49;;;;;;;11.75;6.35;;;4.10;99.90;;;;;;5034104;28;20037;-73
2023/03/12 06:11:15;;;;;;;14.07;6.60;;;4.10;99.90;;;;;;5033428;28;20030;-74
2023/03/12 06:13:41;;;;;;;12.50;6.30;;;4.00;99.90;;;;;;5033783;28;20083;-72
2023/03/12 06:16:15;;;;;;;18.15;7.65;;;4.00;99.90;;;;;;5033391;28;20025;-73
2023/03/12 06:18:41;;;;;;;17.67;8.48;;;4.00;99.90;;;;;;5033730;28;20022;-73
2023/03/12 06:21:28;;;;;;;14.82;6.95;;;4.00;99.90;;;;;;5033055;28;20143;-74
2023/03/12 06:23:54;;;;;;;18.13;8.15;;;4.00;99.90;;;;;;5033287;28;20034;-74
2023/03/12 06:26:20;;;;;;;14.55;7.32;;;3.90;99.90;;;;;;5032234;28;20037;-74
2023/03/12 06:28:47;;;;;;;15.32;7.30;;;3.90;99.90;;;;;;5033373;28;20373;-74
2023/03/12 06:31:13;;;;;;;15.32;7.60;;;3.90;99.90;;;;;;5032918;28;20481;-72
2023/03/12 06:33:38;;;;;;;21.40;8.63;;;3.90;99.90;;;;;;5032612;28;20044;-72
2023/03/12 06:36:06;;;;;;;23.15;10.98;;;3.90;99.90;;;;;;5032734;28;20030;-74
2023/03/12 06:38:33;;;;;;;22.75;10.35;;;3.90;99.90;;;;;;5032950;28;20179;-74
2023/03/12 06:41:02;;;;;;;16.67;8.18;;;4.00;99.90;;;;;;5032889;28;20029;-74
2023/03/12 06:43:29;;;;;;;19.55;10.93;;;4.00;99.90;;;;;;5032757;28;20138;-74
2023/03/12 06:45:57;;;;;;;23.23;10.98;;;4.00;99.90;;;;;;5032209;28;20037;-75
2023/03/12 06:48:24;;;;;;;25.27;11.32;;;4.10;99.90;;;;;;5032671;28;20063;-74
2023/03/12 06:50:51;;;;;;;18.02;8.85;;;4.10;99.90;;;;;;5032188;28;20470;-74
2023/03/12 06:53:17;;;;;;;24.80;11.30;;;4.10;99.90;;;;;;5032595;28;20037;-75
2023/03/12 06:55:43;;;;;;;12.68;7.03;;;4.10;99.90;;;;;;5032290;28;20033;-75
2023/03/12 06:58:09;;;;;;;19.95;10.35;;;4.10;99.90;;;;;;5032668;28;20022;-73
2023/03/12 07:00:35;;;;;;;20.73;11.50;;;4.10;99.90;;;;;;5032215;28;20056;-73
2023/03/12 07:03:01;;;;;;;22.92;10.63;;;4.10;99.90;;;;;;5032613;28;20033;-74
2023/03/12 07:05:27;;;;;;;20.63;10.00;;;4.20;99.90;;;;;;5013866;28;20037;-73
2023/03/12 07:07:53;;;;;;;25.13;12.02;;;4.20;99.90;;;;;;5032314;28;20033;-75
2023/03/12 07:10:18;;;;;;;29.00;14.07;;;4.20;99.90;;;;;;5032341;28;20482;-75
2023/03/12 07:12:45;;;;;;;29.80;15.23;;;4.20;99.90;;;;;;5031921;28;20040;-74
2023/03/12 07:15:11;;;;;;;24.50;14.43;;;4.20;99.90;;;;;;5032087;28;20116;-75
2023/03/12 07:17:36;;;;;;;20.27;9.50;;;4.30;99.90;;;;;;5032407;28;20113;-72
2023/03/12 07:20:02;;;;;;;27.80;12.93;;;4.30;99.90;;;;;;5032364;28;20100;-73
2023/03/12 07:22:28;;;;;;;26.08;14.40;;;4.30;99.90;;;;;;5031783;28;20128;-73
2023/03/12 07:24:53;;;;;;;22.10;10.88;;;4.30;99.90;;;;;;5032157;28;20681;-73
2023/03/12 07:27:19;;;;;;;22.98;11.70;;;4.30;99.90;;;;;;5031970;28;20427;-74
2023/03/12 07:29:44;;;;;;;22.88;11.95;;;4.40;99.90;;;;;;5032078;28;20475;-73
2023/03/12 07:32:10;;;;;;;25.33;11.85;;;4.40;99.90;;;;;;5031769;28;20457;-75
2023/03/12 07:34:36;;;;;;;33.53;17.17;;;4.40;99.90;;;;;;5031814;28;20171;-75
2023/03/12 07:37:02;;;;;;;24.13;11.90;;;4.40;99.90;;;;;;5032332;28;20108;-75
2023/03/12 07:39:28;;;;;;;28.30;15.98;;;4.50;99.90;;;;;;5039400;28;20484;-73
2023/03/12 07:41:54;;;;;;;30.92;16.80;;;4.40;99.90;;;;;;5031805;28;20041;-74
2023/03/12 07:44:19;;;;;;;30.30;16.98;;;4.50;99.90;;;;;;5036955;28;20025;-74
2023/03/12 07:46:45;;;;;;;19.80;10.50;;;4.50;99.90;;;;;;5038212;28;20303;-74
2023/03/12 07:49:10;;;;;;;56.78;18.38;;;4.60;99.90;;;;;;5037696;28;20381;-73
2023/03/12 07:51:36;;;;;;;30.05;15.07;;;4.60;99.90;;;;;;5038327;28;20038;-74
2023/03/12 07:54:01;;;;;;;25.85;12.65;;;4.60;99.90;;;;;;5038426;28;20045;-73
2023/03/12 07:56:27;;;;;;;33.75;17.23;;;4.70;99.90;;;;;;5038532;28;20048;-73
2023/03/12 07:58:53;;;;;;;25.08;12.35;;;4.70;99.90;;;;;;5038583;28;20491;-74
2023/03/12 08:01:18;;;;;;;29.73;16.42;;;4.70;99.90;;;;;;5038872;28;20036;-73
2023/03/12 08:03:44;;;;;;;33.78;18.58;;;4.80;99.90;;;;;;5039022;28;20099;-74
2023/03/12 08:06:10;;;;;;;33.10;18.00;;;4.80;99.90;;;;;;5020609;28;20021;-74
2023/03/12 08:08:37;;;;;;;34.00;18.77;;;4.90;99.90;;;;;;5038455;28;20037;-73
2023/03/12 08:11:04;;;;;;;31.25;16.08;;;5.00;99.90;;;;;;5038502;28;20060;-74
2023/03/12 08:13:29;;;;;;;31.65;15.82;;;5.00;99.90;;;;;;5037787;28;20072;-75
2023/03/12 08:15:55;;;;;;;33.40;16.88;;;5.10;99.90;;;;;;5038485;28;20388;-73
2023/03/12 08:18:21;;;;;;;31.35;16.50;;;5.20;99.90;;;;;;5037805;28;20038;-74
2023/03/12 08:20:52;;;;;;;34.08;18.63;;;5.30;99.90;;;;;;5038330;28;20022;-74
2023/03/12 08:23:18;;;;;;;39.92;22.33;;;5.40;99.90;;;;;;5020304;28;20030;-74
2023/03/12 08:25:46;;;;;;;49.05;20.65;;;5.40;99.90;;;;;;5038552;28;20029;-74
2023/03/12 08:28:12;;;;;;;37.58;20.02;;;5.50;99.90;;;;;;5037525;28;20084;-74
2023/03/12 08:30:37;;;;;;;35.45;19.67;;;5.60;99.90;;;;;;5038528;28;20049;-74
2023/03/12 08:33:03;;;;;;;36.15;18.02;;;5.60;99.90;;;;;;5038128;28;20299;-74
2023/03/12 08:35:29;;;;;;;36.97;17.60;;;5.70;99.90;;;;;;5038095;28;20041;-74
2023/03/12 08:37:55;;;;;;;44.95;23.83;;;5.80;99.90;;;;;;5038272;28;20041;-74
2023/03/12 08:40:22;;;;;;;42.28;21.42;;;5.90;99.90;;;;;;5038153;28;20028;-74
2023/03/12 08:42:47;;;;;;;37.30;19.10;;;6.10;99.90;;;;;;5037688;28;20033;-74
2023/03/12 08:45:14;;;;;;;42.88;23.52;;;6.20;99.90;;;;;;5038012;28;20083;-74
2023/03/12 08:47:40;;;;;;;47.40;23.95;;;6.30;99.90;;;;;;5037788;28;20057;-74
2023/03/12 08:50:07;;;;;;;43.38;20.85;;;6.40;99.90;;;;;;5034583;28;20496;-74
2023/03/12 08:52:33;;;;;;;49.58;23.48;;;6.60;99.90;;;;;;5035347;28;20025;-74
2023/03/12 08:54:58;;;;;;;46.75;22.10;;;6.70;99.90;;;;;;5035098;28;20723;-75
2023/03/12 08:57:24;;;;;;;49.30;22.55;;;6.80;99.90;;;;;;5034316;28;20083;-75
2023/03/12 08:59:49;;;;;;;42.97;19.42;;;6.90;99.90;;;;;;5034852;28;20025;-75
2023/03/12 09:02:15;;;;;;;40.15;17.17;;;7.00;99.90;;;;;;5016956;28;20112;-75
2023/03/12 09:04:41;;;;;;;39.22;16.42;;;7.20;99.90;;;;;;5035080;28;20033;-75
2023/03/12 09:07:06;;;;;;;39.25;14.25;;;7.30;99.90;;;;;;5016616;28;20056;-75
2023/03/12 09:09:32;;;;;;;39.42;13.35;;;7.60;99.90;;;;;;5016952;28;20026;-75
2023/03/12 09:11:57;;;;;;;34.03;11.57;;;7.70;99.90;;;;;;5034124;28;20040;-75
2023/03/12 09:14:23;;;;;;;39.70;11.73;;;8.00;99.90;;;;;;5034202;28;20037;-75
2023/03/12 09:16:48;;;;;;;31.55;10.77;;;8.10;99.90;;;;;;5034242;28;20032;-75
2023/03/12 09:19:15;;;;;;;35.92;9.80;;;8.30;99.90;;;;;;5016832;28;20075;-75
2023/03/12 09:21:40;;;;;;;29.10;10.68;;;8.40;99.90;;;;;;5034441;28;20052;-75
2023/03/12 09:24:06;;;;;;;29.05;9.27;;;8.40;99.90;;;;;;5034564;28;20485;-75
2023/03/12 09:26:32;;;;;;;29.40;7.78;;;8.50;99.90;;;;;;5034296;28;20152;-75
2023/03/12 09:28:58;;;;;;;26.65;8.55;;;8.60;99.90;;;;;;5033885;28;20116;-75
2023/03/12 09:31:24;;;;;;;33.17;8.82;;;8.70;99.90;;;;;;5034258;28;20025;-74
2023/03/12 09:33:50;;;;;;;32.25;9.32;;;8.80;99.90;;;;;;5033865;28;20049;-72
2023/03/12 09:36:16;;;;;;;32.75;7.72;;;8.80;99.90;;;;;;5033599;28;20029;-74
2023/03/12 09:38:41;;;;;;;38.53;10.38;;;8.90;99.90;;;;;;5033414;28;20041;-72
2023/03/12 09:41:19;;;;;;;34.42;8.55;;;9.00;99.90;;;;;;5033694;28;20021;-72
2023/03/12 09:43:52;;;;;;;29.65;6.75;;;9.20;99.90;;;;;;5033490;28;20465;-72
2023/03/12 09:46:31;;;;;;;29.30;6.53;;;9.40;99.90;;;;;;5032108;28;20042;-72
2023/03/12 09:49:03;;;;;;;33.00;7.50;;;9.60;99.90;;;;;;5032294;28;20022;-72
2023/03/12 09:51:39;;;;;;;;;;;9.90;99.90;;;;;;5033925;28;20026;-72
2023/03/12 09:54:22;;;;;;;24.00;5.18;;;10.00;99.90;;;;;;5033761;28;19925;-72
2023/03/12 09:56:51;;;;;;;28.00;7.80;;;10.50;99.90;;;;;;5033728;28;20022;-72
2023/03/12 09:59:17;;;;;;;23.98;6.07;;;11.20;99.90;;;;;;5033458;28;20083;-72
2023/03/12 10:01:50;;;;;;;26.27;4.63;;;12.20;99.90;;;;;;5033286;28;20025;-72
2023/03/12 10:04:19;;;;;;;24.30;5.10;;;13.30;99.90;;;;;;5032465;28;20056;-72
2023/03/12 10:06:55;;;;;;;23.67;4.95;;;14.40;99.90;;;;;;5033921;28;20159;-72
2023/03/12 10:09:36;;;;;;;28.08;5.32;;;15.20;99.90;;;;;;5033347;28;20029;-72
2023/03/12 10:12:13;;;;;;;24.90;5.88;;;15.70;99.90;;;;;;5033061;28;20060;-72
2023/03/12 10:15:09;;;;;;;29.73;7.63;;;15.70;99.90;;;;;;5033601;28;20405;-72
2023/03/12 10:18:01;;;;;;;24.10;7.38;;;15.40;99.90;;;;;;5033444;28;20037;-72
2023/03/12 10:20:40;;;;;;;22.27;4.68;;;15.10;99.90;;;;;;5011393;28;20041;-72
2023/03/12 10:23:27;;;;;;;30.05;7.00;;;14.70;99.90;;;;;;5021746;28;20041;-72
2023/03/12 10:26:12;;;;;;;23.02;5.95;;;14.40;99.90;;;;;;5028181;28;20112;-72
2023/03/12 10:29:14;;;;;;;28.40;6.47;;;13.90;99.90;;;;;;5022169;28;20515;-72
2023/03/12 10:31:53;;;;;;;18.60;4.60;;;13.60;99.90;;;;;;4999864;28;20053;-71
2023/03/12 10:34:31;;;;;;;31.52;5.88;;;13.20;99.90;;;;;;5030754;28;20095;-72
2023/03/12 10:37:22;;;;;;;27.67;7.35;;;13.00;99.90;;;;;;5031191;28;20040;-72
2023/03/12 10:39:49;;;;;;;27.08;6.68;;;13.00;99.90;;;;;;5014540;28;20049;-72
2023/03/12 10:42:19;;;;;;;29.73;5.70;;;13.20;99.90;;;;;;5030943;28;20172;-72
2023/03/12 10:44:49;;;;;;;25.48;6.18;;;13.30;99.90;;;;;;5031380;28;20052;-72
2023/03/12 10:47:31;;;;;;;30.63;6.68;;;13.30;99.90;;;;;;5027379;28;20135;-72
2023/03/12 10:50:11;;;;;;;26.15;5.88;;;13.20;99.90;;;;;;5028983;28;20029;-72
2023/03/12 10:52:36;;;;;;;23.17;5.57;;;13.20;99.90;;;;;;5028918;28;20061;-72
2023/03/12 10:55:19;;;;;;;33.35;6.60;;;13.10;99.90;;;;;;5031193;28;20072;-72
2023/03/12 10:57:45;;;;;;;26.60;5.07;;;12.90;99.90;;;;;;5031308;28;20419;-72
2023/03/12 11:00:20;;;;;;;33.08;5.78;;;13.00;99.90;;;;;;5027063;28;20030;-72
2023/03/12 11:03:04;;;;;;;30.17;6.05;;;13.10;99.90;;;;;;5029601;28;20120;-71
2023/03/12 11:05:44;;;;;;;31.00;5.30;;;13.00;99.90;;;;;;5027174;28;20437;-72
2023/03/12 11:08:22;;;;;;;35.03;6.03;;;13.00;99.90;;;;;;5031011;28;20029;-72
2023/03/12 11:10:48;;;;;;;33.88;6.30;;;13.10;99.90;;;;;;5032540;28;20021;-71
2023/03/12 11:13:24;;;;;;;29.10;5.50;;;13.20;99.90;;;;;;5031556;28;20164;-72
2023/03/12 11:15:51;;;;;;;34.22;8.27;;;13.10;99.90;;;;;;5032288;28;20485;-71
2023/03/12 11:18:34;;;;;;;30.55;7.18;;;13.10;99.90;;;;;;5030463;28;20049;-72
2023/03/12 11:21:09;;;;;;;27.38;6.55;;;13.00;99.90;;;;;;5029237;28;20033;-72
2023/03/12 11:23:42;;;;;;;32.55;8.20;;;13.30;99.90;;;;;;5030892;28;20029;-72
2023/03/12 11:26:15;;;;;;;31.08;6.43;;;13.50;99.90;;;;;;5026706;28;20029;-72
2023/03/12 11:28:45;;;;;;;30.73;6.93;;;13.80;99.90;;;;;;5030105;28;20033;-72
2023/03/12 11:31:24;;;;;;;34.58;7.20;;;14.50;99.90;;;;;;5031768;28;20544;-73
2023/03/12 11:33:52;;;;;;;29.75;5.32;;;14.70;99.90;;;;;;5032022;28;20389;-72
2023/03/12 11:36:44;;;;;;;31.92;6.88;;;14.60;99.90;;;;;;5031718;28;20377;-72
2023/03/12 11:39:37;;;;;;;31.30;6.03;;;14.70;99.90;;;;;;5032245;28;20025;-72
2023/03/12 11:42:37;;;;;;;23.42;6.30;;;15.00;99.90;;;;;;5031695;28;20029;-72
2023/03/12 11:45:25;;;;;;;28.60;6.05;;;15.00;99.90;;;;;;5031389;28;20025;-72
2023/03/12 11:48:17;;;;;;;38.13;7.63;;;14.90;99.90;;;;;;5031580;28;20520;-72
2023/03/12 11:51:04;;;;;;;41.30;9.25;;;14.70;99.90;;;;;;5030572;28;20026;-72
2023/03/12 11:53:46;;;;;;;37.13;9.20;;;14.70;99.90;;;;;;5031302;28;20033;-72
2023/03/12 11:56:19;;;;;;;28.90;7.43;;;14.50;99.90;;;;;;5028828;28;20052;-72
2023/03/12 11:58:52;;;;;;;31.77;7.22;;;14.30;99.90;;;;;;5029742;28;20047;-71
2023/03/12 12:01:32;;;;;;;31.92;6.18;;;14.20;99.90;;;;;;5025300;28;20056;-71
2023/03/12 12:04:39;;;;;;;29.63;6.57;;;14.20;99.90;;;;;;5029663;28;20038;-71
2023/03/12 12:07:33;;;;;;;34.42;6.15;;;14.10;99.90;;;;;;5010766;28;20044;-70
2023/03/12 12:10:16;;;;;;;31.70;6.93;;;13.80;99.90;;;;;;4994679;28;20456;-71
2023/03/12 12:13:09;;;;;;;26.90;6.88;;;13.70;99.90;;;;;;5012254;28;20180;-72
2023/03/12 12:15:53;;;;;;;30.33;8.80;;;13.60;99.90;;;;;;5014087;28;20037;-72
2023/03/12 12:18:30;;;;;;;33.08;5.88;;;13.30;99.90;;;;;;5014561;28;20382;-71
2023/03/12 12:21:18;;;;;;;36.95;6.38;;;13.20;99.90;;;;;;5031580;28;20029;-70
2023/03/12 12:23:59;;;;;;;33.25;6.25;;;13.10;99.90;;;;;;5031745;28;20026;-70
2023/03/12 12:27:01;;;;;;;32.65;6.10;;;13.20;99.90;;;;;;5035018;28;20474;-69
2023/03/12 12:29:58;;;;;;;35.53;6.45;;;13.10;99.90;;;;;;5035479;28;20382;-70
2023/03/12 12:32:58;;;;;;;33.75;5.95;;;13.10;99.90;;;;;;5035058;28;20037;-72
2023/03/12 12:35:39;;;;;;;42.17;7.95;;;13.00;99.90;;;;;;4981746;28;20410;-72
2023/03/12 12:38:28;;;;;;;37.75;7.28;;;13.00;99.90;;;;;;5015419;28;20492;-71
2023/03/12 12:41:02;;;;;;;29.65;6.60;;;13.20;99.90;;;;;;5027815;28;20101;-72
2023/03/12 12:43:34;;;;;;;36.65;8.50;;;13.60;99.90;;;;;;5032217;28;20045;-71
2023/03/12 12:46:03;;;;;;;31.65;7.28;;;13.80;99.90;;;;;;5033980;28;20117;-72
2023/03/12 12:49:08;;;;;;;38.80;8.68;;;14.00;99.90;;;;;;5030706;28;20060;-72
2023/03/12 12:51:38;;;;;;;32.35;6.68;;;14.00;99.90;;;;;;5019909;28;20489;-70
2023/03/12 12:54:15;;;;;;;35.08;6.85;;;13.90;99.90;;;;;;5034620;28;20048;-72
2023/03/12 12:56:47;;;;;;;30.10;5.10;;;14.10;99.90;;;;;;5021254;28;20472;-71
2023/03/12 12:59:31;;;;;;;35.67;7.47;;;14.10;99.90;;;;;;5034696;28;20034;-72